Time;durP1;ratioP1;P1;durP2;ratioP2;P2;SDS_P1;SDS_P2;PMS_P1;PMS_P2;Temp;Humidity;BMP_temperature;BMP_pressure;BME280_temperature;BME280_humidity;BME280_pressure;Samples;Min_cycle;Max_cycle;Signal;HPM_P1;HPM_P2
2021/04/08 00:01:10;;;;;;;0.68;0.10;;;20.80;52.50;;;;;;5013632;28;20488;-79
2021/04/08 00:03:36;;;;;;;0.47;0.10;;;20.80;52.50;;;;;;5047739;28;20037;-77
2021/04/08 00:06:02;;;;;;;0.43;0.05;;;20.80;52.60;;;;;;5031194;28;20070;-79
2021/04/08 00:08:28;;;;;;;3.53;0.10;;;20.80;52.60;;;;;;5032595;28;20275;-79
2021/04/08 00:10:55;;;;;;;0.35;0.13;;;20.80;52.60;;;;;;5033685;28;20077;-80
2021/04/08 00:13:21;;;;;;;0.40;0.05;;;20.70;52.60;;;;;;5017403;28;20030;-79
2021/04/08 00:15:47;;;;;;;0.30;0.00;;;20.70;52.70;;;;;;5037449;28;20025;-80
2021/04/08 00:18:13;;;;;;;0.43;0.10;;;20.70;52.60;;;;;;5016516;28;20103;-80
2021/04/08 00:20:39;;;;;;;0.50;0.05;;;20.70;52.70;;;;;;5040251;28;20413;-79
2021/04/08 00:23:05;;;;;;;0.98;0.03;;;20.70;52.70;;;;;;5056969;28;20022;-80
2021/04/08 00:25:31;;;;;;;0.65;0.10;;;20.70;52.70;;;;;;5041013;28;20095;-78
2021/04/08 00:27:57;;;;;;;0.20;0.00;;;20.70;52.80;;;;;;5061119;28;20037;-79
2021/04/08 00:30:23;;;;;;;0.30;0.10;;;20.60;52.80;;;;;;5015077;28;20013;-80
2021/04/08 00:32:49;;;;;;;0.85;0.00;;;20.60;52.80;;;;;;5029307;28;20115;-80
2021/04/08 00:35:15;;;;;;;0.70;0.10;;;20.60;52.80;;;;;;5031184;28;20512;-80
2021/04/08 00:37:41;;;;;;;0.30;0.10;;;20.60;52.90;;;;;;5030954;28;20140;-80
2021/04/08 00:40:13;;;;;;;0.47;0.10;;;20.60;53.00;;;;;;5038655;28;20010;-79
2021/04/08 00:42:39;;;;;;;;;;;20.60;53.10;;;;;;5016584;28;20060;-80
2021/04/08 00:45:06;;;;;;;0.50;0.05;;;20.60;53.30;;;;;;5029732;28;19988;-80
2021/04/08 00:47:32;;;;;;;0.15;0.00;;;20.60;53.50;;;;;;5016203;28;20090;-80
2021/04/08 00:49:58;;;;;;;0.93;0.10;;;20.60;53.20;;;;;;5033246;28;20052;-80
2021/04/08 00:52:24;;;;;;;0.25;0.00;;;20.50;53.40;;;;;;5048566;28;20017;-80
2021/04/08 00:54:51;;;;;;;0.30;0.10;;;20.50;53.40;;;;;;5031360;28;20476;-79
2021/04/08 00:57:17;;;;;;;0.73;0.00;;;20.50;53.30;;;;;;5037504;28;20020;-79
2021/04/08 00:59:45;;;;;;;0.43;0.00;;;20.50;53.50;;;;;;5014067;28;20052;-80
2021/04/08 01:02:12;;;;;;;0.30;0.00;;;20.50;53.20;;;;;;5032489;28;20025;-76
2021/04/08 01:04:38;;;;;;;0.50;0.10;;;20.50;53.30;;;;;;5044391;28;20029;-77
2021/04/08 01:07:05;;;;;;;0.47;0.10;;;20.50;53.40;;;;;;5031949;28;20054;-77
2021/04/08 01:09:30;;;;;;;1.45;0.10;;;20.50;53.50;;;;;;5025408;28;20037;-76
2021/04/08 01:11:56;;;;;;;0.30;0.10;;;20.40;53.50;;;;;;5025841;28;20160;-75
2021/04/08 01:14:22;;;;;;;0.88;0.10;;;20.40;53.50;;;;;;5045768;28;20100;-75
2021/04/08 01:17:03;;;;;;;0.73;0.10;;;20.40;53.70;;;;;;5011648;28;20037;-78
2021/04/08 01:20:05;;;;;;;0.63;0.00;;;20.40;53.50;;;;;;5030330;28;20021;-78
2021/04/08 01:22:39;;;;;;;0.30;0.00;;;20.40;53.90;;;;;;5001941;28;20068;-80
2021/04/08 01:25:53;;;;;;;0.50;0.08;;;20.40;53.80;;;;;;5030778;28;20025;-79
2021/04/08 01:28:36;;;;;;;0.60;0.10;;;20.40;53.80;;;;;;5048446;28;20248;-78
2021/04/08 01:31:04;;;;;;;0.90;0.10;;;20.40;54.00;;;;;;5012586;28;20384;-79
2021/04/08 01:33:34;;;;;;;0.10;0.00;;;20.40;54.00;;;;;;5047924;28;20038;-77
2021/04/08 01:36:14;;;;;;;0.22;0.10;;;20.40;54.10;;;;;;5023950;28;20053;-76
2021/04/08 01:38:44;;;;;;;0.60;0.10;;;20.30;54.00;;;;;;5009244;28;20033;-77
2021/04/08 01:41:11;;;;;;;0.38;0.10;;;20.30;54.20;;;;;;5027363;28;20077;-77
2021/04/08 01:43:40;;;;;;;0.22;0.00;;;20.30;54.30;;;;;;5027647;28;20127;-77
2021/04/08 01:46:08;;;;;;;0.93;0.00;;;20.30;54.60;;;;;;5042251;28;20035;-77
2021/04/08 01:48:35;;;;;;;0.75;0.10;;;20.30;54.30;;;;;;5043085;28;20037;-77
2021/04/08 01:51:04;;;;;;;0.30;0.00;;;20.30;54.30;;;;;;5009472;28;20388;-77
2021/04/08 01:53:33;;;;;;;1.38;0.00;;;20.30;54.30;;;;;;5029306;28;20094;-78
2021/04/08 01:56:01;;;;;;;0.73;0.10;;;20.30;54.60;;;;;;5045005;28;20021;-77
2021/04/08 01:58:29;;;;;;;0.30;0.00;;;20.30;54.70;;;;;;5028865;28;20069;-77
2021/04/08 02:00:57;;;;;;;0.43;0.00;;;20.20;52.80;;;;;;5014635;28;20044;-78
2021/04/08 02:03:23;;;;;;;1.38;0.10;;;20.20;52.70;;;;;;5027953;28;20059;-77
2021/04/08 02:05:50;;;;;;;0.20;0.00;;;20.20;52.50;;;;;;5030371;28;20494;-78
2021/04/08 02:08:18;;;;;;;0.90;0.10;;;20.20;52.20;;;;;;5007278;28;20718;-77
2021/04/08 02:10:44;;;;;;;0.40;0.00;;;20.20;52.30;;;;;;5045164;28;20100;-76
2021/04/08 02:13:14;;;;;;;1.95;0.10;;;20.20;52.20;;;;;;5026018;28;20041;-77
2021/04/08 02:15:43;;;;;;;0.50;0.00;;;20.20;52.20;;;;;;5015946;28;20029;-77
2021/04/08 02:18:15;;;;;;;0.77;0.10;;;20.20;52.10;;;;;;5024226;28;20053;-77
2021/04/08 02:20:43;;;;;;;0.22;0.03;;;20.20;52.10;;;;;;5042049;28;20024;-77
2021/04/08 02:23:09;;;;;;;0.77;0.10;;;20.10;52.10;;;;;;5028475;28;20029;-77
2021/04/08 02:25:37;;;;;;;0.13;0.00;;;20.10;52.10;;;;;;5045783;28;20036;-77
2021/04/08 02:28:07;;;;;;;0.40;0.10;;;20.20;52.20;;;;;;5028949;28;20026;-76
2021/04/08 02:30:46;;;;;;;0.40;0.10;;;20.10;52.10;;;;;;5011092;28;20477;-77
2021/04/08 02:33:22;;;;;;;0.40;0.00;;;20.10;52.10;;;;;;5031073;28;20028;-77
2021/04/08 02:35:48;;;;;;;0.60;0.05;;;20.10;52.10;;;;;;5027742;28;20048;-76
2021/04/08 02:38:16;;;;;;;0.30;0.05;;;20.10;52.00;;;;;;5008125;28;20025;-77
2021/04/08 02:40:42;;;;;;;0.60;0.10;;;20.10;52.00;;;;;;5026625;28;20048;-78
2021/04/08 02:43:11;;;;;;;0.60;0.10;;;20.10;52.10;;;;;;5016574;28;20615;-78
2021/04/08 02:45:41;;;;;;;0.90;0.00;;;20.00;51.90;;;;;;5007943;28;20118;-79
2021/04/08 02:48:09;;;;;;;0.77;0.05;;;20.00;52.00;;;;;;5026463;28;20129;-81
2021/04/08 02:50:36;;;;;;;0.95;0.00;;;20.00;52.10;;;;;;5037440;28;20017;-78
2021/04/08 02:53:11;;;;;;;0.22;0.00;;;20.10;52.00;;;;;;5016442;28;20048;-78
2021/04/08 02:55:50;;;;;;;0.52;0.00;;;20.00;51.90;;;;;;5027699;28;20027;-78
2021/04/08 02:58:17;;;;;;;0.50;0.10;;;20.00;52.00;;;;;;5016229;28;20029;-78
2021/04/08 03:00:54;;;;;;;0.57;0.00;;;20.00;51.90;;;;;;5053588;28;20017;-78
2021/04/08 03:03:23;;;;;;;0.88;0.10;;;20.00;52.10;;;;;;5035490;28;20029;-77
2021/04/08 03:05:51;;;;;;;1.45;0.05;;;20.00;51.90;;;;;;5010804;28;20030;-77
2021/04/08 03:08:19;;;;;;;1.05;0.00;;;20.00;52.00;;;;;;5033528;28;20028;-77
2021/04/08 03:10:47;;;;;;;1.77;0.10;;;20.00;52.10;;;;;;5036678;28;20024;-78
2021/04/08 03:13:16;;;;;;;0.25;0.00;;;20.00;52.10;;;;;;5035042;28;20014;-80
2021/04/08 03:15:43;;;;;;;0.38;0.08;;;20.00;52.10;;;;;;5038727;28;20022;-81
2021/04/08 03:18:18;;;;;;;0.32;0.10;;;19.90;52.00;;;;;;5032668;28;20056;-79
2021/04/08 03:20:52;;;;;;;0.40;0.00;;;19.90;52.00;;;;;;5054057;28;20032;-80
2021/04/08 03:23:21;;;;;;;0.30;0.10;;;19.90;52.10;;;;;;5041199;28;20075;-80
2021/04/08 03:25:49;;;;;;;0.15;0.00;;;19.90;52.00;;;;;;5026992;28;20024;-78
2021/04/08 03:28:16;;;;;;;0.73;0.00;;;19.90;52.10;;;;;;5037162;28;20021;-77
2021/04/08 03:30:42;;;;;;;0.47;0.00;;;19.90;52.00;;;;;;5033886;28;20112;-78
2021/04/08 03:33:09;;;;;;;1.17;0.00;;;19.90;52.10;;;;;;5057391;28;20085;-79
2021/04/08 03:35:37;;;;;;;0.30;0.00;;;19.90;52.10;;;;;;5053836;28;20033;-79
2021/04/08 03:38:04;;;;;;;1.63;0.00;;;19.90;52.20;;;;;;5043941;28;20040;-80
2021/04/08 03:40:31;;;;;;;1.30;0.10;;;19.90;52.10;;;;;;5029603;28;20103;-78
2021/04/08 03:42:59;;;;;;;0.22;0.00;;;19.90;52.20;;;;;;5031188;28;20013;-75
2021/04/08 03:45:25;;;;;;;0.30;0.00;;;19.80;52.20;;;;;;5066148;28;20017;-76
2021/04/08 03:47:53;;;;;;;0.50;0.10;;;19.80;52.20;;;;;;5050366;28;20025;-77
2021/04/08 03:50:19;;;;;;;0.30;0.00;;;19.90;52.20;;;;;;5048237;28;20040;-77
2021/04/08 03:52:46;;;;;;;0.30;0.00;;;19.80;52.00;;;;;;5065400;28;20037;-76
2021/04/08 03:55:13;;;;;;;0.35;0.00;;;19.90;52.10;;;;;;5038214;28;20565;-78
2021/04/08 03:57:42;;;;;;;0.30;0.10;;;19.80;52.10;;;;;;5010799;28;20496;-77
2021/04/08 04:00:11;;;;;;;0.38;0.00;;;19.80;52.10;;;;;;5007503;28;20071;-78
2021/04/08 04:02:39;;;;;;;1.55;0.00;;;19.80;52.10;;;;;;5008375;28;20038;-78
2021/04/08 04:05:08;;;;;;;0.28;0.00;;;19.80;52.20;;;;;;5027756;28;20109;-78
2021/04/08 04:07:36;;;;;;;1.23;0.10;;;19.80;52.10;;;;;;5023435;28;20032;-79
2021/04/08 04:10:03;;;;;;;0.20;0.00;;;19.80;52.20;;;;;;5014220;28;20030;-78
2021/04/08 04:12:29;;;;;;;0.30;0.00;;;19.80;52.30;;;;;;5010736;28;20025;-77
2021/04/08 04:15:02;;;;;;;0.08;0.00;;;19.80;52.20;;;;;;5047664;28;20032;-78
2021/04/08 04:17:30;;;;;;;0.40;0.08;;;19.80;52.20;;;;;;5045342;28;20025;-77
2021/04/08 04:20:02;;;;;;;0.40;0.10;;;19.70;52.20;;;;;;5031396;28;20024;-77
2021/04/08 04:22:28;;;;;;;0.85;0.00;;;19.70;52.20;;;;;;5050002;28;20515;-77
2021/04/08 04:24:54;;;;;;;0.28;0.00;;;19.70;52.10;;;;;;5018184;28;20035;-77
2021/04/08 04:27:20;;;;;;;0.73;0.10;;;19.70;52.20;;;;;;5027256;28;20104;-78
2021/04/08 04:29:46;;;;;;;0.13;0.00;;;19.70;52.20;;;;;;5025770;28;20079;-78
2021/04/08 04:32:12;;;;;;;0.30;0.03;;;19.70;52.20;;;;;;5046205;28;20033;-78
2021/04/08 04:34:41;;;;;;;0.30;0.05;;;19.70;52.20;;;;;;5015411;28;20027;-77
2021/04/08 04:37:07;;;;;;;0.77;0.00;;;19.70;52.20;;;;;;5027936;28;20013;-77
2021/04/08 04:39:33;;;;;;;1.25;0.20;;;19.70;52.20;;;;;;5026439;28;20499;-77
2021/04/08 04:42:01;;;;;;;0.40;0.00;;;19.70;52.20;;;;;;5009405;28;20264;-77
2021/04/08 04:44:28;;;;;;;0.45;0.00;;;19.70;52.80;;;;;;5030920;28;20047;-77
2021/04/08 04:46:56;;;;;;;0.10;0.00;;;19.70;52.20;;;;;;5020559;28;20025;-77
2021/04/08 04:49:22;;;;;;;0.17;0.00;;;19.70;52.30;;;;;;5047301;28;20493;-76
2021/04/08 04:51:48;;;;;;;0.20;0.00;;;19.70;52.20;;;;;;5015358;28;20674;-78
2021/04/08 04:54:15;;;;;;;0.80;0.00;;;19.70;52.10;;;;;;5028168;28;20023;-78
2021/04/08 04:56:43;;;;;;;0.95;0.00;;;19.70;52.10;;;;;;5027962;28;20105;-77
2021/04/08 04:59:10;;;;;;;0.88;0.00;;;19.70;52.20;;;;;;5024477;28;20049;-77
2021/04/08 05:01:36;;;;;;;0.28;0.00;;;19.60;52.10;;;;;;5030644;28;20057;-78
2021/04/08 05:04:02;;;;;;;1.20;0.00;;;19.60;52.20;;;;;;5030078;28;20017;-77
2021/04/08 05:06:28;;;;;;;0.57;0.00;;;19.60;52.20;;;;;;5020369;28;20449;-77
2021/04/08 05:08:54;;;;;;;0.55;0.00;;;19.60;52.10;;;;;;5031965;28;20068;-77
2021/04/08 05:11:19;;;;;;;0.57;0.00;;;19.60;52.10;;;;;;5032050;28;20022;-78
2021/04/08 05:13:45;;;;;;;0.50;0.05;;;19.60;52.10;;;;;;5021443;28;20180;-77
2021/04/08 05:16:11;;;;;;;0.20;0.08;;;19.60;52.20;;;;;;5045998;28;20017;-77
2021/04/08 05:18:37;;;;;;;0.10;0.00;;;19.60;52.10;;;;;;5025667;28;20040;-77
2021/04/08 05:21:04;;;;;;;1.95;0.00;;;19.60;52.20;;;;;;5024188;28;20026;-77
2021/04/08 05:23:30;;;;;;;0.30;0.00;;;19.60;52.20;;;;;;5029859;28;20021;-77
2021/04/08 05:25:56;;;;;;;0.50;0.00;;;19.60;52.20;;;;;;5038922;28;20024;-77
2021/04/08 05:28:22;;;;;;;0.17;0.00;;;19.60;52.20;;;;;;5008137;28;20055;-77
2021/04/08 05:30:48;;;;;;;0.38;0.00;;;19.60;52.20;;;;;;5043332;28;20572;-77
2021/04/08 05:33:13;;;;;;;0.30;0.00;;;19.60;52.20;;;;;;5048346;28;20112;-77
2021/04/08 05:35:39;;;;;;;0.10;0.00;;;19.60;52.20;;;;;;5040634;28;20031;-78
2021/04/08 05:38:05;;;;;;;0.20;0.00;;;19.80;52.00;;;;;;5041135;28;20585;-78
2021/04/08 05:40:31;;;;;;;0.17;0.00;;;19.90;51.70;;;;;;5041192;28;20029;-78
2021/04/08 05:42:57;;;;;;;0.32;0.00;;;20.10;51.50;;;;;;5024069;28;20034;-79
2021/04/08 05:45:26;;;;;;;0.75;0.08;;;20.20;51.30;;;;;;5027647;28;20032;-78
2021/04/08 05:47:53;;;;;;;0.32;0.00;;;20.30;51.10;;;;;;5010177;28;20099;-78
2021/04/08 05:50:19;;;;;;;0.20;0.00;;;20.40;51.00;;;;;;5005307;28;20033;-77
2021/04/08 05:52:45;;;;;;;1.55;0.00;;;20.40;50.90;;;;;;5025849;28;20072;-78
2021/04/08 05:55:11;;;;;;;0.57;0.00;;;20.50;50.80;;;;;;5027206;28;20477;-78
2021/04/08 05:57:37;;;;;;;0.08;0.00;;;20.60;50.80;;;;;;5012870;28;20104;-76
2021/04/08 06:00:06;;;;;;;0.57;0.00;;;20.60;50.80;;;;;;5042174;28;20100;-78
2021/04/08 06:02:33;;;;;;;0.20;0.00;;;20.60;50.80;;;;;;5014193;28;20616;-77
2021/04/08 06:04:59;;;;;;;0.10;0.00;;;20.60;50.80;;;;;;5041079;28;20076;-77
2021/04/08 06:07:25;;;;;;;0.10;0.00;;;20.60;50.80;;;;;;5007659;28;20017;-79
2021/04/08 06:09:51;;;;;;;0.25;0.00;;;20.60;50.90;;;;;;5005908;28;20029;-77
2021/04/08 06:12:18;;;;;;;2.08;0.03;;;20.60;51.00;;;;;;5027317;28;20530;-77
2021/04/08 06:14:45;;;;;;;0.40;0.00;;;20.70;51.10;;;;;;5015415;28;20021;-77
2021/04/08 06:17:11;;;;;;;0.80;0.03;;;20.80;51.00;;;;;;5011910;28;20032;-79
2021/04/08 06:19:37;;;;;;;0.43;0.10;;;20.80;51.00;;;;;;5044026;28;20021;-77
2021/04/08 06:22:03;;;;;;;0.73;0.10;;;20.80;50.90;;;;;;5027901;28;20032;-76
2021/04/08 06:24:29;;;;;;;0.88;0.20;;;20.80;50.80;;;;;;5043969;28;20517;-77
2021/04/08 06:26:55;;;;;;;0.85;0.10;;;20.90;50.90;;;;;;5006502;28;20456;-77
2021/04/08 06:29:22;;;;;;;1.33;0.10;;;20.90;50.90;;;;;;5022451;28;20033;-77
2021/04/08 06:31:49;;;;;;;1.20;0.10;;;20.90;50.90;;;;;;5024288;28;20049;-77
2021/04/08 06:34:15;;;;;;;0.68;0.10;;;20.80;50.90;;;;;;5018526;28;20025;-78
2021/04/08 06:36:41;;;;;;;1.80;0.20;;;20.90;51.00;;;;;;5030375;28;20527;-76
2021/04/08 06:39:07;;;;;;;0.52;0.10;;;20.80;50.90;;;;;;5005986;28;20490;-77
2021/04/08 06:41:38;;;;;;;1.08;0.10;;;20.80;51.00;;;;;;5024557;28;20100;-78
2021/04/08 06:44:07;;;;;;;1.08;0.20;;;20.80;51.00;;;;;;5050298;28;20021;-77
2021/04/08 06:46:40;;;;;;;0.55;0.10;;;20.90;51.00;;;;;;5024420;28;20332;-77
2021/04/08 06:49:40;;;;;;;1.15;0.17;;;20.80;51.00;;;;;;5048090;28;20080;-77
2021/04/08 06:52:07;;;;;;;1.58;0.20;;;20.80;51.10;;;;;;5027368;28;20028;-76
2021/04/08 06:54:34;;;;;;;1.27;0.10;;;20.80;51.10;;;;;;5005699;28;20025;-77
2021/04/08 06:57:01;;;;;;;2.75;0.10;;;20.70;51.10;;;;;;5040852;28;20021;-77
2021/04/08 06:59:27;;;;;;;0.90;0.20;;;20.70;51.20;;;;;;5040075;28;20022;-76
2021/04/08 07:01:53;;;;;;;1.27;0.20;;;20.70;51.20;;;;;;5024935;28;20033;-76
2021/04/08 07:04:19;;;;;;;0.90;0.30;;;20.70;51.20;;;;;;5046783;28;20029;-77
2021/04/08 07:06:45;;;;;;;1.52;0.20;;;20.70;51.20;;;;;;5023356;28;20032;-78
2021/04/08 07:09:12;;;;;;;1.52;0.20;;;20.70;51.40;;;;;;5024221;28;20033;-78
2021/04/08 07:11:40;;;;;;;1.05;0.20;;;20.70;51.50;;;;;;5004709;28;20032;-77
2021/04/08 07:14:09;;;;;;;2.15;0.15;;;20.80;51.70;;;;;;5007957;28;20036;-77
2021/04/08 07:16:36;;;;;;;0.80;0.10;;;20.80;51.70;;;;;;5024443;28;20035;-78
2021/04/08 07:19:04;;;;;;;1.55;0.25;;;20.80;51.70;;;;;;5023991;28;20110;-77
2021/04/08 07:21:32;;;;;;;0.52;0.10;;;20.80;51.90;;;;;;5023665;28;20041;-78
2021/04/08 07:24:19;;;;;;;0.68;0.10;;;20.90;51.90;;;;;;5023101;28;20029;-78
2021/04/08 07:26:52;;;;;;;1.65;0.10;;;20.90;52.00;;;;;;5024435;28;20025;-78
2021/04/08 07:29:22;;;;;;;0.77;0.13;;;20.90;52.00;;;;;;5041680;28;20762;-78
2021/04/08 07:31:48;;;;;;;2.88;0.30;;;20.90;52.10;;;;;;5022706;28;20021;-77
2021/04/08 07:34:34;;;;;;;3.67;0.50;;;20.90;52.10;;;;;;5017558;28;20026;-78
2021/04/08 07:37:00;;;;;;;0.95;0.17;;;20.80;52.30;;;;;;5044224;28;20017;-77
2021/04/08 07:39:37;;;;;;;1.15;0.30;;;20.80;52.20;;;;;;5024665;28;20114;-76
2021/04/08 07:42:09;;;;;;;3.80;0.20;;;20.80;52.40;;;;;;5026313;28;20021;-76
2021/04/08 07:44:41;;;;;;;;;;;20.90;52.40;;;;;;5027249;28;20400;-77
2021/04/08 07:47:16;;;;;;;;;;;20.90;52.50;;;;;;5033530;28;20003;-76
2021/04/08 07:49:43;;;;;;;0.75;0.30;;;20.90;52.50;;;;;;5042608;28;20220;-77
2021/04/08 07:52:31;;;;;;;3.88;0.30;;;20.90;52.60;;;;;;5026558;28;20033;-76
2021/04/08 07:55:06;;;;;;;6.18;0.20;;;20.90;52.70;;;;;;5026007;28;20121;-77
2021/04/08 07:58:13;;;;;;;1.35;0.30;;;20.90;52.70;;;;;;5025444;28;20025;-76
2021/04/08 08:00:44;;;;;;;1.90;0.28;;;20.90;52.80;;;;;;5022359;28;20055;-76
2021/04/08 08:03:25;;;;;;;3.60;0.35;;;20.90;52.80;;;;;;5024272;28;20564;-77
2021/04/08 08:05:58;;;;;;;1.88;0.32;;;20.90;52.70;;;;;;5041532;28;20071;-76
2021/04/08 08:08:27;;;;;;;2.13;0.30;;;20.90;52.80;;;;;;5024219;28;20029;-76
2021/04/08 08:11:02;;;;;;;2.97;0.20;;;20.90;52.90;;;;;;5009922;28;20388;-79
2021/04/08 08:13:34;;;;;;;1.42;0.10;;;21.10;52.90;;;;;;5014651;28;20025;-80
2021/04/08 08:16:02;;;;;;;1.10;0.20;;;21.20;52.60;;;;;;5010938;28;20052;-80
2021/04/08 08:18:35;;;;;;;0.70;0.10;;;21.40;52.50;;;;;;5026507;28;20033;-79
2021/04/08 08:21:08;;;;;;;0.55;0.10;;;21.50;52.30;;;;;;5028132;28;20032;-79
2021/04/08 08:23:38;;;;;;;0.57;0.10;;;21.60;52.30;;;;;;5027946;28;20052;-78
2021/04/08 08:26:23;;;;;;;1.48;0.20;;;21.60;52.20;;;;;;5042508;28;20385;-79
2021/04/08 08:28:49;;;;;;;1.85;0.20;;;21.70;52.10;;;;;;5028152;28;20294;-79
2021/04/08 08:31:52;;;;;;;0.85;0.30;;;21.70;52.10;;;;;;5023891;28;20026;-77
2021/04/08 08:34:18;;;;;;;0.70;0.20;;;21.80;52.20;;;;;;5042257;28;20113;-76
2021/04/08 08:36:47;;;;;;;1.23;0.30;;;21.90;52.20;;;;;;5009069;28;20443;-79
2021/04/08 08:39:17;;;;;;;1.02;0.30;;;21.90;52.10;;;;;;5025057;28;20500;-79
2021/04/08 08:41:44;;;;;;;2.53;0.13;;;21.90;52.10;;;;;;5047473;28;20033;-79
2021/04/08 08:44:12;;;;;;;1.83;0.20;;;22.00;52.20;;;;;;5027819;28;20029;-78
2021/04/08 08:47:00;;;;;;;0.60;0.20;;;21.90;52.20;;;;;;5011804;28;20025;-78
2021/04/08 08:49:35;;;;;;;1.20;0.40;;;21.90;52.30;;;;;;5044058;28;20021;-78
2021/04/08 08:52:02;;;;;;;2.75;0.20;;;21.90;52.30;;;;;;5043015;28;20024;-78
2021/04/08 08:54:32;;;;;;;0.77;0.25;;;21.90;52.30;;;;;;5022704;28;20021;-79
2021/04/08 08:56:59;;;;;;;0.95;0.30;;;21.90;52.30;;;;;;5028660;28;20021;-78
2021/04/08 08:59:27;;;;;;;0.70;0.20;;;21.90;52.50;;;;;;5025824;28;20029;-78
2021/04/08 09:01:53;;;;;;;4.53;0.40;;;21.90;52.50;;;;;;5028085;28;20032;-78
2021/04/08 09:04:19;;;;;;;1.67;0.40;;;21.90;52.50;;;;;;5052522;28;20029;-78
2021/04/08 09:06:45;;;;;;;1.58;0.30;;;21.80;52.60;;;;;;5023769;28;20013;-77
2021/04/08 09:09:14;;;;;;;1.27;0.32;;;21.90;52.70;;;;;;5024277;28;20029;-79
2021/04/08 09:11:42;;;;;;;1.20;0.20;;;21.90;52.70;;;;;;5022371;28;20029;-77
2021/04/08 09:14:10;;;;;;;1.67;0.30;;;21.90;52.60;;;;;;5014106;28;20365;-78
2021/04/08 09:16:49;;;;;;;0.85;0.20;;;21.90;52.60;;;;;;5043733;28;20057;-80
2021/04/08 09:19:25;;;;;;;1.67;0.40;;;21.90;52.60;;;;;;5024541;28;20128;-80
2021/04/08 09:21:53;;;;;;;0.90;0.20;;;21.90;52.60;;;;;;5025003;28;20083;-79
2021/04/08 09:24:21;;;;;;;1.80;0.25;;;21.80;52.60;;;;;;5025506;28;20049;-78
2021/04/08 09:26:51;;;;;;;2.03;0.30;;;21.80;52.70;;;;;;5027949;28;20072;-78
2021/04/08 09:29:38;;;;;;;0.98;0.40;;;21.80;52.80;;;;;;5042065;28;20045;-78
2021/04/08 09:32:25;;;;;;;1.30;0.40;;;21.80;52.90;;;;;;5031578;28;20040;-78
2021/04/08 09:35:11;;;;;;;1.25;0.52;;;21.80;53.00;;;;;;5024336;28;20505;-77
2021/04/08 09:38:00;;;;;;;0.98;0.30;;;21.80;53.00;;;;;;5008576;28;20059;-78
2021/04/08 09:40:30;;;;;;;1.38;0.40;;;21.80;52.80;;;;;;5041624;28;20029;-77
2021/04/08 09:43:00;;;;;;;1.35;0.47;;;21.80;53.00;;;;;;5043517;28;20021;-77
2021/04/08 09:45:27;;;;;;;1.35;0.45;;;21.70;52.90;;;;;;5007532;28;20025;-76
2021/04/08 09:48:07;;;;;;;2.75;0.73;;;21.70;52.90;;;;;;5023100;28;20618;-77
2021/04/08 09:50:52;;;;;;;2.13;0.70;;;21.70;53.20;;;;;;5040800;28;20048;-79
2021/04/08 09:53:24;;;;;;;1.20;0.60;;;21.70;53.20;;;;;;5013210;28;20021;-76
2021/04/08 09:56:03;;;;;;;3.03;0.50;;;21.70;53.20;;;;;;5024183;28;20055;-76
2021/04/08 09:58:31;;;;;;;1.08;0.45;;;21.70;53.10;;;;;;5040278;28;20029;-76
2021/04/08 10:00:59;;;;;;;1.63;0.73;;;21.80;53.50;;;;;;5025079;28;20025;-76
2021/04/08 10:03:34;;;;;;;0.88;0.50;;;21.90;53.30;;;;;;5043052;28;20017;-78
2021/04/08 10:06:13;;;;;;;1.02;0.47;;;22.00;52.90;;;;;;5005153;28;20098;-78
2021/04/08 10:08:40;;;;;;;2.78;0.63;;;22.20;52.80;;;;;;5040418;28;20032;-76
2021/04/08 10:11:06;;;;;;;1.35;0.45;;;22.30;52.90;;;;;;5039666;28;20584;-75
2021/04/08 10:13:33;;;;;;;1.00;0.50;;;22.40;53.00;;;;;;5007772;28;20029;-76
2021/04/08 10:16:08;;;;;;;2.28;0.65;;;22.40;52.90;;;;;;5043047;28;20028;-76
2021/04/08 10:18:34;;;;;;;1.58;0.50;;;22.50;52.90;;;;;;5039901;28;20056;-77
2021/04/08 10:21:06;;;;;;;3.65;0.65;;;22.50;52.80;;;;;;5046469;28;20032;-76
2021/04/08 10:23:43;;;;;;;2.60;0.60;;;22.50;52.70;;;;;;5028589;28;20028;-76
2021/04/08 10:26:12;;;;;;;2.20;0.30;;;22.50;52.60;;;;;;5026438;28;20022;-78
2021/04/08 10:28:39;;;;;;;0.70;0.40;;;22.60;52.80;;;;;;5024605;28;20029;-78
2021/04/08 10:31:20;;;;;;;2.15;0.63;;;22.60;52.90;;;;;;5007917;28;20022;-79
2021/04/08 10:33:49;;;;;;;1.17;0.30;;;22.60;53.00;;;;;;5027429;28;20112;-79
2021/04/08 10:36:29;;;;;;;0.68;0.40;;;22.50;53.00;;;;;;5040777;28;20037;-78
2021/04/08 10:39:33;;;;;;;3.33;0.82;;;22.50;53.10;;;;;;5043698;28;20028;-78
2021/04/08 10:42:02;;;;;;;1.00;0.40;;;22.50;53.10;;;;;;4934632;29;20039;-78
2021/04/08 10:44:31;;;;;;;2.22;0.60;;;22.50;53.20;;;;;;5023865;28;20132;-78
2021/04/08 10:47:11;;;;;;;0.88;0.40;;;22.50;53.00;;;;;;5026771;28;20075;-77
2021/04/08 10:49:57;;;;;;;1.63;0.40;;;22.50;53.00;;;;;;5024502;28;20030;-77
2021/04/08 10:52:24;;;;;;;2.10;0.30;;;22.50;52.90;;;;;;5037424;28;20024;-77
2021/04/08 10:55:05;;;;;;;0.90;0.30;;;22.50;53.00;;;;;;5008544;28;20394;-78
2021/04/08 10:57:31;;;;;;;1.00;0.30;;;22.40;42.50;;;;;;5041146;28;20063;-76
2021/04/08 10:59:58;;;;;;;0.65;0.30;;;22.40;42.50;;;;;;5021955;28;20029;-76
2021/04/08 11:02:34;;;;;;;0.63;0.30;;;22.30;42.40;;;;;;5022284;28;20056;-78
2021/04/08 11:05:05;;;;;;;1.08;0.47;;;22.40;42.40;;;;;;5021633;28;20026;-78
2021/04/08 11:07:36;;;;;;;;;;;22.30;42.60;;;;;;5026710;28;20112;-77
2021/04/08 11:10:23;;;;;;;0.70;0.40;;;22.20;42.50;;;;;;5039958;28;19932;-78
2021/04/08 11:12:51;;;;;;;0.57;0.20;;;22.10;42.40;;;;;;5027275;28;20021;-77
2021/04/08 11:15:20;;;;;;;1.08;0.30;;;22.10;42.20;;;;;;5006719;28;20033;-76
2021/04/08 11:17:49;;;;;;;0.93;0.20;;;22.20;42.20;;;;;;5044743;28;20192;-76
2021/04/08 11:20:18;;;;;;;1.00;0.30;;;22.10;42.10;;;;;;5028264;28;20083;-77
2021/04/08 11:22:46;;;;;;;3.38;0.50;;;22.20;42.10;;;;;;5046287;28;20033;-78
2021/04/08 11:25:14;;;;;;;1.00;0.30;;;22.20;42.20;;;;;;5025104;28;20485;-78
2021/04/08 11:27:45;;;;;;;2.60;0.50;;;22.10;42.10;;;;;;5011862;28;20037;-80
2021/04/08 11:30:21;;;;;;;1.35;0.30;;;22.10;42.20;;;;;;5030224;28;20128;-79
2021/04/08 11:32:53;;;;;;;1.15;0.25;;;22.10;42.20;;;;;;5012600;28;20040;-78
2021/04/08 11:35:25;;;;;;;;;;;22.10;42.30;;;;;;5012208;28;20037;-78
2021/04/08 11:38:09;;;;;;;1.23;0.30;;;22.10;42.40;;;;;;5012263;28;19908;-79
2021/04/08 11:40:37;;;;;;;0.90;0.20;;;22.10;42.40;;;;;;5027784;28;20075;-79
2021/04/08 11:43:23;;;;;;;5.05;0.22;;;22.10;42.40;;;;;;5011424;28;20025;-80
2021/04/08 11:45:50;;;;;;;1.10;0.20;;;22.10;42.40;;;;;;5044201;28;20053;-77
2021/04/08 11:48:19;;;;;;;1.23;0.38;;;22.10;42.30;;;;;;5027333;28;20052;-78
2021/04/08 11:50:47;;;;;;;2.25;0.20;;;22.10;42.40;;;;;;5043636;28;20025;-77
2021/04/08 11:53:15;;;;;;;2.38;0.13;;;22.10;42.50;;;;;;5032669;28;20025;-77
2021/04/08 11:55:47;;;;;;;0.80;0.30;;;22.10;42.50;;;;;;5029523;28;20025;-78
2021/04/08 11:58:41;;;;;;;1.08;0.32;;;22.10;42.40;;;;;;5043426;28;20033;-76
2021/04/08 12:01:12;;;;;;;2.17;0.32;;;22.10;42.50;;;;;;5027374;28;20028;-77
2021/04/08 12:03:43;;;;;;;0.80;0.30;;;22.10;42.40;;;;;;5026335;28;20041;-79
2021/04/08 12:06:15;;;;;;;1.25;0.28;;;22.10;43.00;;;;;;5026254;28;20024;-76
2021/04/08 12:08:46;;;;;;;1.30;0.50;;;22.10;43.00;;;;;;5027241;28;20021;-77
2021/04/08 12:11:14;;;;;;;0.50;0.13;;;22.20;43.00;;;;;;5007874;28;20378;-77
2021/04/08 12:13:42;;;;;;;1.60;0.40;;;22.30;42.80;;;;;;5025662;28;20049;-78
2021/04/08 12:16:22;;;;;;;0.60;0.20;;;22.30;42.60;;;;;;5023811;28;20021;-77
2021/04/08 12:18:48;;;;;;;0.65;0.20;;;22.40;42.60;;;;;;5007493;28;20021;-77
2021/04/08 12:21:14;;;;;;;1.25;0.30;;;22.50;42.40;;;;;;5044096;28;20056;-79
2021/04/08 12:23:40;;;;;;;0.50;0.15;;;22.50;42.30;;;;;;5024269;28;20522;-77
2021/04/08 12:26:07;;;;;;;1.02;0.25;;;22.60;42.40;;;;;;5024514;28;20052;-77
2021/04/08 12:28:33;;;;;;;0.43;0.20;;;22.70;42.40;;;;;;5007119;28;20032;-78
2021/04/08 12:31:00;;;;;;;0.50;0.10;;;22.80;42.20;;;;;;5025468;28;20500;-77
2021/04/08 12:33:33;;;;;;;0.82;0.10;;;22.90;42.50;;;;;;5027361;28;20047;-79
2021/04/08 12:36:05;;;;;;;0.20;0.10;;;23.00;42.50;;;;;;5023582;28;20500;-77
2021/04/08 12:38:31;;;;;;;1.45;0.30;;;23.00;42.40;;;;;;5023890;28;20110;-76
2021/04/08 12:40:59;;;;;;;0.32;0.10;;;23.00;42.40;;;;;;5042866;28;20373;-76
2021/04/08 12:43:26;;;;;;;1.10;0.20;;;23.00;42.50;;;;;;5022432;28;20055;-78
2021/04/08 12:45:53;;;;;;;0.30;0.10;;;23.00;42.40;;;;;;5041510;28;20021;-76
2021/04/08 12:48:19;;;;;;;0.40;0.10;;;23.10;42.40;;;;;;5042841;28;20033;-75
2021/04/08 12:50:47;;;;;;;0.50;0.20;;;23.10;42.30;;;;;;5043871;28;20057;-77
2021/04/08 12:53:14;;;;;;;0.63;0.20;;;23.10;42.20;;;;;;5042088;28;20093;-78
2021/04/08 12:55:40;;;;;;;1.83;0.25;;;23.10;42.30;;;;;;5027451;28;20036;-79
2021/04/08 12:58:07;;;;;;;0.43;0.10;;;23.10;42.30;;;;;;5024592;28;20025;-76
2021/04/08 13:00:33;;;;;;;0.68;0.10;;;23.10;42.40;;;;;;5026461;28;20427;-77
2021/04/08 13:03:00;;;;;;;0.60;0.10;;;23.00;42.30;;;;;;5025754;28;20079;-79